Time;durP1;ratioP1;P1;durP2;ratioP2;P2;SDS_P1;SDS_P2;PMS_P1;PMS_P2;Temp;Humidity;BMP_temperature;BMP_pressure;BME280_temperature;BME280_humidity;BME280_pressure;Samples;Min_cycle;Max_cycle;Signal;HPM_P1;HPM_P2
2023/03/14 00:02:21;;;;;;;3.37;1.57;;;;;;;;;;5094148;28;20430;-44
2023/03/14 00:04:47;;;;;;;5.20;2.00;;;;;;;;;;5094582;28;20434;-44
2023/03/14 00:07:13;;;;;;;5.83;2.00;;;;;;;;;;5094762;28;20491;-44
2023/03/14 00:09:39;;;;;;;3.37;1.80;;;;;;;;;;5094414;28;21054;-44
2023/03/14 00:12:07;;;;;;;3.33;2.00;;;;;;;;;;5093848;28;20511;-44
2023/03/14 00:14:33;;;;;;;11.37;2.20;;;;;;;;;;5090024;28;20507;-44
2023/03/14 00:16:59;;;;;;;8.10;2.87;;;;;;;;;;5091575;28;20417;-44
2023/03/14 00:19:25;;;;;;;5.80;1.90;;;;;;;;;;5093994;28;20407;-44
2023/03/14 00:21:51;;;;;;;7.27;1.90;;;;;;;;;;5093579;28;20439;-44
2023/03/14 00:24:17;;;;;;;2.57;2.00;;;;;;;;;;5093304;28;20416;-44
2023/03/14 00:26:42;;;;;;;6.90;2.10;;;;;;;;;;5093007;28;20407;-44
2023/03/14 00:29:08;;;;;;;3.17;1.90;;;;;;;;;;5090762;28;20467;-43
2023/03/14 00:31:35;;;;;;;6.97;2.10;;;;;;;;;;5092327;28;20419;-44
2023/03/14 00:34:01;;;;;;;7.40;2.13;;;;;;;;;;5090213;28;20842;-43
2023/03/14 00:36:27;;;;;;;11.13;1.80;;;;;;;;;;5094196;28;20444;-44
2023/03/14 00:38:53;;;;;;;3.27;1.93;;;;;;;;;;5093959;28;20454;-44
2023/03/14 00:41:22;;;;;;;2.17;1.60;;;;;;;;;;5092111;28;20447;-44
2023/03/14 00:43:48;;;;;;;3.47;1.87;;;;;;;;;;5094077;28;20440;-44
2023/03/14 00:46:14;;;;;;;7.20;1.33;;;;;;;;;;5094143;28;20420;-44
2023/03/14 00:48:40;;;;;;;5.37;1.70;;;;;;;;;;5094313;28;20408;-44
2023/03/14 00:51:06;;;;;;;4.23;1.73;;;;;;;;;;5093090;28;20926;-44
2023/03/14 00:53:35;;;;;;;2.70;2.10;;;;;;;;;;5093950;28;20450;-44
2023/03/14 00:56:03;;;;;;;4.93;1.73;;;;;;;;;;5093729;28;20420;-44
2023/03/14 00:58:29;;;;;;;2.00;1.73;;;;;;;;;;5093801;28;20410;-44
2023/03/14 01:00:54;;;;;;;4.40;2.00;;;;;;;;;;5083234;28;20436;-45
2023/03/14 01:03:20;;;;;;;4.50;1.90;;;;;;;;;;5093839;28;20431;-45
2023/03/14 01:05:46;;;;;;;4.23;2.07;;;;;;;;;;5093672;28;20457;-43
2023/03/14 01:08:12;;;;;;;3.10;2.00;;;;;;;;;;5086150;28;20395;-44
2023/03/14 01:10:40;;;;;;;8.03;2.43;;;;;;;;;;5091827;28;20488;-44
2023/03/14 01:13:06;;;;;;;10.10;3.83;;;;;;;;;;5093428;28;20958;-44
2023/03/14 01:15:33;;;;;;;5.60;2.17;;;;;;;;;;5093420;28;20455;-45
2023/03/14 01:17:59;;;;;;;2.60;1.60;;;;;;;;;;5093407;28;20430;-45
2023/03/14 01:20:24;;;;;;;2.90;1.80;;;;;;;;;;5092691;28;20967;-45
2023/03/14 01:22:50;;;;;;;3.63;1.63;;;;;;;;;;5092164;28;20950;-46
2023/03/14 01:25:17;;;;;;;1.80;1.70;;;;;;;;;;5093604;28;20463;-45
2023/03/14 01:27:43;;;;;;;5.83;1.83;;;;;;;;;;5093231;28;20415;-47
2023/03/14 01:30:10;;;;;;;4.70;2.00;;;;;;;;;;5089765;28;20484;-45
2023/03/14 01:32:37;;;;;;;2.43;2.23;;;;;;;;;;5090876;28;20446;-45
2023/03/14 01:35:03;;;;;;;6.37;1.50;;;;;;;;;;5093087;28;20894;-45
2023/03/14 01:37:29;;;;;;;6.23;2.33;;;;;;;;;;5091431;28;20403;-45
2023/03/14 01:39:55;;;;;;;5.43;2.47;;;;;;;;;;5092922;28;20755;-46
2023/03/14 01:42:20;;;;;;;3.73;2.00;;;;;;;;;;5092248;28;20422;-46
2023/03/14 01:44:49;;;;;;;4.67;1.70;;;;;;;;;;5092868;28;20406;-46
2023/03/14 01:47:15;;;;;;;6.10;1.77;;;;;;;;;;5092841;28;20949;-47
2023/03/14 01:49:41;;;;;;;4.00;2.07;;;;;;;;;;5092848;28;20560;-47
2023/03/14 01:52:10;;;;;;;3.60;2.77;;;;;;;;;;5091462;28;20429;-46
2023/03/14 01:54:44;;;;;;;7.20;2.00;;;;;;;;;;5092764;28;20472;-47
2023/03/14 01:57:19;;;;;;;3.70;1.70;;;;;;;;;;5085199;28;20406;-47
2023/03/14 02:00:11;;;;;;;2.23;1.20;;;;;;;;;;5091246;28;20433;-46
2023/03/14 02:02:38;;;;;;;6.93;2.07;;;;;;;;;;5090452;28;21054;-46
2023/03/14 02:05:04;;;;;;;5.07;1.70;;;;;;;;;;5091261;28;20786;-47
2023/03/14 02:07:36;;;;;;;3.53;1.60;;;;;;;;;;5091398;28;20404;-46
2023/03/14 02:10:03;;;;;;;2.80;1.60;;;;;;;;;;5092519;28;20885;-47
2023/03/14 02:12:30;;;;;;;4.10;1.70;;;;;;;;;;5092051;28;20431;-46
2023/03/14 02:14:56;;;;;;;5.50;1.83;;;;;;;;;;5092238;28;20425;-47
2023/03/14 02:17:23;;;;;;;3.80;1.80;;;;;;;;;;5092406;28;20421;-46
2023/03/14 02:19:53;;;;;;;4.03;1.70;;;;;;;;;;5091290;28;20422;-46
2023/03/14 02:22:19;;;;;;;9.93;1.80;;;;;;;;;;5092011;28;20466;-46
2023/03/14 02:24:45;;;;;;;6.73;1.77;;;;;;;;;;5092131;28;20418;-45
2023/03/14 02:27:14;;;;;;;5.03;1.67;;;;;;;;;;5092087;28;20846;-46
2023/03/14 02:30:00;;;;;;;5.03;1.67;;;;;;;;;;5085975;28;20814;-46
2023/03/14 02:32:27;;;;;;;7.60;2.60;;;;;;;;;;5084986;28;20534;-46
2023/03/14 02:35:18;;;;;;;4.87;1.60;;;;;;;;;;5091470;28;20479;-46
2023/03/14 02:37:46;;;;;;;6.90;2.20;;;;;;;;;;5089539;28;20412;-46
2023/03/14 02:40:12;;;;;;;5.70;1.97;;;;;;;;;;5091319;28;20468;-46
2023/03/14 02:42:38;;;;;;;4.73;1.80;;;;;;;;;;5091959;28;20438;-46
2023/03/14 02:45:10;;;;;;;2.43;1.90;;;;;;;;;;5091791;28;20790;-46
2023/03/14 02:47:38;;;;;;;2.47;1.33;;;;;;;;;;5091194;28;20469;-47
2023/03/14 02:50:07;;;;;;;8.10;2.40;;;;;;;;;;5090333;28;20832;-47
2023/03/14 02:52:33;;;;;;;4.60;1.90;;;;;;;;;;5091754;28;20491;-45
2023/03/14 02:54:59;;;;;;;5.30;2.43;;;;;;;;;;5092132;28;20874;-45
2023/03/14 02:57:25;;;;;;;8.97;2.20;;;;;;;;;;5086168;28;20761;-46
2023/03/14 02:59:51;;;;;;;5.47;2.30;;;;;;;;;;5090187;28;22180;-46
2023/03/14 03:02:17;;;;;;;4.77;1.77;;;;;;;;;;5090853;28;20469;-46
2023/03/14 03:04:43;;;;;;;2.70;1.70;;;;;;;;;;5090609;28;20434;-47
2023/03/14 03:07:09;;;;;;;7.50;1.83;;;;;;;;;;5091758;28;20422;-46
2023/03/14 03:09:35;;;;;;;6.63;1.87;;;;;;;;;;5091628;28;20457;-46
2023/03/14 03:12:01;;;;;;;6.67;1.80;;;;;;;;;;5090859;28;20775;-46
2023/03/14 03:14:27;;;;;;;4.97;2.00;;;;;;;;;;5091498;28;20417;-45
2023/03/14 03:16:53;;;;;;;4.47;1.70;;;;;;;;;;5083465;28;20529;-46
2023/03/14 03:19:19;;;;;;;3.27;1.40;;;;;;;;;;5089278;28;20420;-46
2023/03/14 03:21:45;;;;;;;6.80;1.43;;;;;;;;;;5085058;28;20434;-46
2023/03/14 03:24:11;;;;;;;1.90;1.73;;;;;;;;;;5085250;28;20430;-47
2023/03/14 03:26:37;;;;;;;8.07;1.90;;;;;;;;;;5080146;28;20957;-46
2023/03/14 03:29:03;;;;;;;8.47;2.47;;;;;;;;;;5082706;28;20470;-46
2023/03/14 03:31:29;;;;;;;2.87;1.50;;;;;;;;;;5084661;28;20735;-46
2023/03/14 03:33:55;;;;;;;1.87;1.63;;;;;;;;;;5086858;28;20484;-46
2023/03/14 03:36:22;;;;;;;6.20;1.87;;;;;;;;;;5082966;28;20423;-46
2023/03/14 03:38:48;;;;;;;2.40;1.47;;;;;;;;;;5085826;28;20503;-45
2023/03/14 03:41:14;;;;;;;5.03;1.50;;;;;;;;;;5083255;28;20903;-46
2023/03/14 03:43:40;;;;;;;9.47;1.87;;;;;;;;;;5087671;28;20485;-46
2023/03/14 03:46:07;;;;;;;8.20;2.83;;;;;;;;;;5086933;28;20496;-46
2023/03/14 03:48:33;;;;;;;2.90;1.80;;;;;;;;;;5086795;28;20824;-46
2023/03/14 03:50:59;;;;;;;3.47;1.57;;;;;;;;;;5089383;28;20400;-46
2023/03/14 03:53:25;;;;;;;7.10;2.40;;;;;;;;;;5091238;28;20411;-45
2023/03/14 03:55:51;;;;;;;11.27;1.77;;;;;;;;;;5090561;28;20920;-46
2023/03/14 03:58:17;;;;;;;2.47;1.73;;;;;;;;;;5091053;28;20812;-46
2023/03/14 04:00:43;;;;;;;5.47;1.47;;;;;;;;;;5087541;28;20457;-47
2023/03/14 04:03:09;;;;;;;8.30;2.27;;;;;;;;;;5090900;28;20969;-46
2023/03/14 04:05:35;;;;;;;1.33;1.23;;;;;;;;;;5094866;28;20407;-45
2023/03/14 04:08:01;;;;;;;8.97;3.00;;;;;;;;;;5094675;28;20762;-45
2023/03/14 04:10:27;;;;;;;4.93;2.97;;;;;;;;;;5094079;28;20485;-45
2023/03/14 04:12:53;;;;;;;4.73;2.87;;;;;;;;;;5086140;28;20478;-45
2023/03/14 04:15:19;;;;;;;1.70;1.60;;;;;;;;;;5092407;28;20429;-46
2023/03/14 04:17:45;;;;;;;6.00;2.00;;;;;;;;;;5090834;28;20453;-45
2023/03/14 04:20:11;;;;;;;3.33;1.60;;;;;;;;;;5093685;28;20422;-45
2023/03/14 04:22:38;;;;;;;2.67;1.57;;;;;;;;;;5094512;28;20431;-45
2023/03/14 04:25:04;;;;;;;5.40;1.77;;;;;;;;;;5094261;28;20925;-45
2023/03/14 04:27:30;;;;;;;2.70;1.70;;;;;;;;;;5094344;28;20418;-46
2023/03/14 04:29:56;;;;;;;1.83;1.00;;;;;;;;;;5094340;28;20465;-46
2023/03/14 04:32:22;;;;;;;1.87;1.40;;;;;;;;;;5093617;28;20429;-46
2023/03/14 04:34:48;;;;;;;4.57;1.93;;;;;;;;;;5094175;28;20416;-46
2023/03/14 04:37:14;;;;;;;1.43;1.30;;;;;;;;;;5094267;28;20415;-46
2023/03/14 04:39:40;;;;;;;3.00;1.23;;;;;;;;;;5093642;28;20467;-45
2023/03/14 04:42:06;;;;;;;7.47;1.90;;;;;;;;;;5088434;28;20455;-47
2023/03/14 04:44:32;;;;;;;6.27;1.80;;;;;;;;;;5093064;28;20461;-47
2023/03/14 04:46:58;;;;;;;2.30;1.30;;;;;;;;;;5094150;28;20924;-46
2023/03/14 04:49:24;;;;;;;4.93;1.63;;;;;;;;;;5093829;28;20829;-48
2023/03/14 04:51:51;;;;;;;5.70;2.03;;;;;;;;;;5093216;28;20501;-46
2023/03/14 04:54:17;;;;;;;2.80;1.50;;;;;;;;;;5093817;28;20920;-47
2023/03/14 04:56:43;;;;;;;3.67;1.50;;;;;;;;;;5093632;28;20444;-47
2023/03/14 04:59:09;;;;;;;4.03;1.60;;;;;;;;;;5092562;28;20785;-47
2023/03/14 05:01:35;;;;;;;6.30;1.83;;;;;;;;;;5093015;28;20429;-47
2023/03/14 05:04:01;;;;;;;6.87;1.93;;;;;;;;;;5093581;28;20447;-47
2023/03/14 05:06:27;;;;;;;4.53;1.97;;;;;;;;;;5093785;28;20406;-46
2023/03/14 05:08:53;;;;;;;3.07;1.90;;;;;;;;;;5093009;28;20485;-46
2023/03/14 05:11:19;;;;;;;5.53;2.07;;;;;;;;;;5093086;28;20435;-47
2023/03/14 05:13:45;;;;;;;11.33;2.10;;;;;;;;;;5088055;28;20444;-47
2023/03/14 05:16:11;;;;;;;4.50;1.57;;;;;;;;;;5092444;28;20446;-46
2023/03/14 05:18:37;;;;;;;1.17;1.07;;;;;;;;;;5093343;28;20900;-47
2023/03/14 05:21:04;;;;;;;1.73;1.00;;;;;;;;;;5092361;28;20500;-47
2023/03/14 05:23:30;;;;;;;3.33;1.37;;;;;;;;;;5093184;28;20455;-47
2023/03/14 05:25:55;;;;;;;2.50;1.10;;;;;;;;;;5093257;28;21026;-46
2023/03/14 05:28:22;;;;;;;0.97;0.97;;;;;;;;;;5093229;28;20434;-46
2023/03/14 05:30:48;;;;;;;1.10;1.00;;;;;;;;;;5092364;28;20465;-46
2023/03/14 05:33:14;;;;;;;1.20;1.10;;;;;;;;;;5093184;28;20432;-48
2023/03/14 05:35:40;;;;;;;3.23;1.10;;;;;;;;;;5092968;28;20998;-47
2023/03/14 05:38:06;;;;;;;2.37;0.93;;;;;;;;;;5092831;28;20413;-46
2023/03/14 05:40:32;;;;;;;1.10;1.00;;;;;;;;;;5092209;28;20409;-46
2023/03/14 05:42:57;;;;;;;1.10;1.00;;;;;;;;;;5091630;28;20514;-47
2023/03/14 05:45:23;;;;;;;3.53;1.10;;;;;;;;;;5086562;28;20457;-46
2023/03/14 05:47:49;;;;;;;1.20;1.10;;;;;;;;;;5085888;28;20413;-47
2023/03/14 05:50:15;;;;;;;2.90;1.23;;;;;;;;;;5092017;28;20452;-47
2023/03/14 05:52:41;;;;;;;1.47;1.37;;;;;;;;;;5092593;28;20437;-47
2023/03/14 05:55:07;;;;;;;2.30;1.60;;;;;;;;;;5092786;28;20409;-47
2023/03/14 05:57:33;;;;;;;2.50;1.60;;;;;;;;;;5088968;28;20422;-47
2023/03/14 05:59:59;;;;;;;8.13;2.37;;;;;;;;;;5091459;28;20738;-47
2023/03/14 06:02:25;;;;;;;2.60;2.00;;;;;;;;;;5092193;28;20428;-46
2023/03/14 06:04:51;;;;;;;6.63;3.10;;;;;;;;;;5092459;28;20430;-47
2023/03/14 06:07:17;;;;;;;8.10;2.77;;;;;;;;;;5090571;28;20520;-46
2023/03/14 06:09:43;;;;;;;4.63;2.70;;;;;;;;;;5092392;28;20487;-46
2023/03/14 06:12:09;;;;;;;2.40;2.20;;;;;;;;;;5087599;28;20456;-46
2023/03/14 06:14:35;;;;;;;2.33;2.10;;;;;;;;;;5092218;28;20449;-46
2023/03/14 06:17:01;;;;;;;6.40;2.53;;;;;;;;;;5092157;28;20406;-46
2023/03/14 06:19:27;;;;;;;6.20;1.90;;;;;;;;;;5092261;28;20397;-46
2023/03/14 06:21:53;;;;;;;2.47;1.83;;;;;;;;;;5091481;28;20788;-46
2023/03/14 06:24:19;;;;;;;4.13;2.10;;;;;;;;;;5092103;28;20414;-46
2023/03/14 06:26:45;;;;;;;2.43;2.00;;;;;;;;;;5092098;28;20418;-47
2023/03/14 06:29:13;;;;;;;4.50;2.20;;;;;;;;;;5085362;28;20587;-47
2023/03/14 06:31:39;;;;;;;9.20;2.57;;;;;;;;;;5091385;28;20409;-47
2023/03/14 06:34:05;;;;;;;4.47;2.50;;;;;;;;;;5092041;28;20407;-46
2023/03/14 06:36:31;;;;;;;2.70;1.87;;;;;;;;;;5091927;28;20419;-46
2023/03/14 06:38:57;;;;;;;4.40;1.97;;;;;;;;;;5091918;28;20409;-46
2023/03/14 06:41:25;;;;;;;3.80;2.17;;;;;;;;;;5091267;28;20470;-47
2023/03/14 06:43:51;;;;;;;2.97;1.90;;;;;;;;;;5088983;28;20471;-46
2023/03/14 06:46:17;;;;;;;2.90;1.53;;;;;;;;;;5091875;28;20415;-46
2023/03/14 06:48:43;;;;;;;2.70;1.70;;;;;;;;;;5089929;28;20909;-46
2023/03/14 06:51:09;;;;;;;2.03;1.30;;;;;;;;;;5091040;28;20409;-46
2023/03/14 06:53:35;;;;;;;1.20;1.10;;;;;;;;;;5091729;28;20491;-46
2023/03/14 06:56:02;;;;;;;3.43;1.90;;;;;;;;;;5089916;28;20422;-46
2023/03/14 06:58:28;;;;;;;4.20;2.00;;;;;;;;;;5090567;28;20486;-47
2023/03/14 07:00:54;;;;;;;4.43;1.63;;;;;;;;;;5089506;28;20498;-46
2023/03/14 07:03:20;;;;;;;2.13;1.87;;;;;;;;;;5091370;28;20430;-45
2023/03/14 07:05:46;;;;;;;3.80;1.90;;;;;;;;;;5088043;28;20463;-46
2023/03/14 07:08:12;;;;;;;2.90;1.60;;;;;;;;;;5089652;28;20422;-46
2023/03/14 07:10:38;;;;;;;3.93;1.70;;;;;;;;;;5084516;28;20474;-46
2023/03/14 07:13:04;;;;;;;5.30;1.57;;;;;;;;;;5085513;28;20440;-46
2023/03/14 07:15:30;;;;;;;1.63;1.53;;;;;;;;;;5085451;28;20942;-46
2023/03/14 07:17:56;;;;;;;2.10;1.80;;;;;;;;;;5090253;28;20409;-46
2023/03/14 07:20:23;;;;;;;1.90;1.57;;;;;;;;;;5090686;28;20407;-46
2023/03/14 07:22:49;;;;;;;1.70;1.60;;;;;;;;;;5091315;28;20543;-46
2023/03/14 07:25:15;;;;;;;6.10;1.77;;;;;;;;;;5091422;28;20407;-46
2023/03/14 07:27:44;;;;;;;3.93;1.73;;;;;;;;;;5090969;28;20409;-46
2023/03/14 07:30:10;;;;;;;4.20;1.73;;;;;;;;;;5081076;28;20453;-46
2023/03/14 07:32:36;;;;;;;1.73;1.30;;;;;;;;;;5091191;28;20517;-47
2023/03/14 07:35:02;;;;;;;1.93;1.70;;;;;;;;;;5090121;28;20507;-46
2023/03/14 07:37:28;;;;;;;3.13;1.50;;;;;;;;;;5093507;28;20958;-47
2023/03/14 07:39:54;;;;;;;1.70;1.50;;;;;;;;;;5094258;28;20419;-46
2023/03/14 07:42:20;;;;;;;2.33;1.63;;;;;;;;;;5093774;28;20427;-46
2023/03/14 07:44:46;;;;;;;1.60;1.50;;;;;;;;;;5089504;28;20434;-46
2023/03/14 07:47:12;;;;;;;7.20;1.50;;;;;;;;;;5089891;28;20445;-46
2023/03/14 07:49:38;;;;;;;2.17;1.90;;;;;;;;;;5094642;28;20965;-46
2023/03/14 07:52:04;;;;;;;2.00;1.77;;;;;;;;;;5093100;28;20423;-46
2023/03/14 07:54:30;;;;;;;1.40;1.30;;;;;;;;;;5089809;28;20399;-46
2023/03/14 07:57:00;;;;;;;1.40;1.30;;;;;;;;;;5086753;28;20404;-46
2023/03/14 07:59:26;;;;;;;1.67;1.57;;;;;;;;;;5092992;28;20976;-46
2023/03/14 08:01:52;;;;;;;1.73;1.63;;;;;;;;;;5093889;28;20431;-46
2023/03/14 08:04:18;;;;;;;1.73;1.57;;;;;;;;;;5094871;28;20412;-45
2023/03/14 08:06:44;;;;;;;1.80;1.70;;;;;;;;;;5094675;28;20408;-46
2023/03/14 08:09:10;;;;;;;2.07;1.93;;;;;;;;;;5094229;28;20980;-46
2023/03/14 08:11:36;;;;;;;1.77;1.67;;;;;;;;;;5094771;28;20403;-46
2023/03/14 08:14:02;;;;;;;2.07;1.97;;;;;;;;;;5093208;28;20794;-46
2023/03/14 08:16:28;;;;;;;3.33;2.10;;;;;;;;;;5094422;28;20510;-46
2023/03/14 08:18:54;;;;;;;2.27;2.17;;;;;;;;;;5094233;28;20893;-46
2023/03/14 08:21:20;;;;;;;2.93;2.73;;;;;;;;;;5093930;28;20431;-46
2023/03/14 08:23:46;;;;;;;3.17;2.87;;;;;;;;;;5094420;28;20549;-46
2023/03/14 08:26:12;;;;;;;3.80;3.27;;;;;;;;;;5093112;28;20468;-46
2023/03/14 08:28:38;;;;;;;3.30;3.10;;;;;;;;;;5091660;28;20411;-46
2023/03/14 08:31:04;;;;;;;2.47;2.27;;;;;;;;;;5087543;28;20466;-46
2023/03/14 08:33:30;;;;;;;4.17;3.00;;;;;;;;;;5088644;28;20443;-46
2023/03/14 08:35:57;;;;;;;2.90;2.60;;;;;;;;;;5087909;28;20934;-46
2023/03/14 08:38:23;;;;;;;2.93;2.67;;;;;;;;;;5094256;28;20412;-46
2023/03/14 08:40:49;;;;;;;2.63;2.50;;;;;;;;;;5093150;28;20828;-47
2023/03/14 08:43:15;;;;;;;3.67;3.10;;;;;;;;;;5086533;28;20447;-46
2023/03/14 08:45:41;;;;;;;4.43;3.77;;;;;;;;;;5084927;28;20428;-46
2023/03/14 08:48:07;;;;;;;3.50;3.20;;;;;;;;;;5092543;28;20883;-46
2023/03/14 08:50:33;;;;;;;3.90;3.13;;;;;;;;;;5088456;28;20882;-46
2023/03/14 08:53:00;;;;;;;3.50;3.20;;;;;;;;;;5093878;28;20427;-46
2023/03/14 08:55:30;;;;;;;4.00;2.60;;;;;;;;;;5092698;28;20415;-46
2023/03/14 08:57:56;;;;;;;3.40;3.17;;;;;;;;;;5090601;28;20430;-46
2023/03/14 09:00:22;;;;;;;3.73;2.50;;;;;;;;;;5092992;28;20895;-46
2023/03/14 09:02:48;;;;;;;2.90;2.60;;;;;;;;;;5093661;28;20427;-46
2023/03/14 09:05:14;;;;;;;2.90;2.60;;;;;;;;;;5093608;28;20411;-46
2023/03/14 09:07:40;;;;;;;2.40;2.20;;;;;;;;;;5092662;28;20576;-46
2023/03/14 09:10:07;;;;;;;2.70;2.50;;;;;;;;;;5092681;28;20439;-46
2023/03/14 09:12:33;;;;;;;2.10;2.00;;;;;;;;;;5090494;28;20439;-46
2023/03/14 09:14:59;;;;;;;2.83;2.53;;;;;;;;;;5088481;28;20939;-46
2023/03/14 09:17:25;;;;;;;6.93;2.10;;;;;;;;;;5092522;28;20430;-46
2023/03/14 09:19:51;;;;;;;2.43;2.13;;;;;;;;;;5093089;28;20419;-46
2023/03/14 09:22:17;;;;;;;2.23;2.13;;;;;;;;;;5092820;28;20423;-46
2023/03/14 09:24:43;;;;;;;8.73;2.50;;;;;;;;;;5093185;28;20747;-46
2023/03/14 09:27:09;;;;;;;1.80;1.70;;;;;;;;;;5093138;28;20421;-45
2023/03/14 09:29:35;;;;;;;2.00;1.70;;;;;;;;;;5091762;28;21050;-46
2023/03/14 09:32:01;;;;;;;1.93;1.30;;;;;;;;;;5092358;28;20931;-46
2023/03/14 09:34:27;;;;;;;2.27;0.90;;;;;;;;;;5092977;28;20417;-46
2023/03/14 09:36:54;;;;;;;1.07;1.07;;;;;;;;;;5091902;28;20404;-46
2023/03/14 09:39:20;;;;;;;3.83;0.90;;;;;;;;;;5092745;28;20487;-46
2023/03/14 09:41:51;;;;;;;1.20;1.10;;;;;;;;;;5091799;28;20507;-47
2023/03/14 09:44:24;;;;;;;1.47;1.00;;;;;;;;;;5088153;28;20486;-47
2023/03/14 09:46:55;;;;;;;1.30;1.20;;;;;;;;;;5086164;28;20476;-46
2023/03/14 09:49:28;;;;;;;1.20;1.10;;;;;;;;;;5084759;28;20474;-47
2023/03/14 09:51:55;;;;;;;1.00;1.00;;;;;;;;;;5090753;28;20434;-46
2023/03/14 09:54:27;;;;;;;1.37;1.27;;;;;;;;;;5092548;28;20411;-46
2023/03/14 09:56:54;;;;;;;1.40;1.30;;;;;;;;;;5088660;28;20496;-46
2023/03/14 09:59:20;;;;;;;1.63;1.30;;;;;;;;;;5085977;28;20533;-46
2023/03/14 10:01:46;;;;;;;1.77;1.30;;;;;;;;;;5089275;28;20421;-46
2023/03/14 10:04:15;;;;;;;4.60;1.27;;;;;;;;;;5091340;28;20413;-46
2023/03/14 10:06:41;;;;;;;1.80;1.70;;;;;;;;;;5092210;28;20417;-46
2023/03/14 10:09:11;;;;;;;1.30;1.20;;;;;;;;;;5091925;28;20452;-46
2023/03/14 10:11:39;;;;;;;1.77;1.57;;;;;;;;;;5087116;28;20928;-46
2023/03/14 10:14:07;;;;;;;1.63;1.53;;;;;;;;;;5085431;28;20424;-45
2023/03/14 10:16:43;;;;;;;1.40;1.30;;;;;;;;;;5084434;28;20463;-46
2023/03/14 10:19:13;;;;;;;1.60;1.50;;;;;;;;;;5084803;28;20490;-46
2023/03/14 10:21:44;;;;;;;1.20;1.20;;;;;;;;;;5091033;28;20924;-46
2023/03/14 10:24:27;;;;;;;3.70;3.00;;;;;;;;;;5083919;28;20489;-46
2023/03/14 10:26:54;;;;;;;4.63;2.80;;;;;;;;;;5091821;28;20431;-46
2023/03/14 10:29:21;;;;;;;1.30;1.20;;;;;;;;;;5091647;28;20456;-46
2023/03/14 10:31:55;;;;;;;2.00;1.90;;;;;;;;;;5089675;28;20959;-46
2023/03/14 10:34:22;;;;;;;2.30;2.20;;;;;;;;;;5092030;28;20902;-46
2023/03/14 10:36:53;;;;;;;2.10;2.00;;;;;;;;;;5091996;28;20448;-46
2023/03/14 10:39:25;;;;;;;2.00;1.90;;;;;;;;;;5091614;28;20418;-46
2023/03/14 10:42:14;;;;;;;2.80;2.03;;;;;;;;;;5090742;28;20447;-46
2023/03/14 10:44:41;;;;;;;2.00;1.90;;;;;;;;;;5086159;28;20440;-46
2023/03/14 10:47:15;;;;;;;2.03;1.87;;;;;;;;;;5090947;28;20429;-45
2023/03/14 10:49:41;;;;;;;1.53;1.43;;;;;;;;;;5091471;28;20455;-46
2023/03/14 10:52:24;;;;;;;2.40;2.20;;;;;;;;;;5090676;28;20839;-46
2023/03/14 10:55:00;;;;;;;3.37;2.53;;;;;;;;;;5091769;28;20415;-46
2023/03/14 10:57:26;;;;;;;2.17;1.97;;;;;;;;;;5086206;28;20392;-46
2023/03/14 10:59:53;;;;;;;2.40;2.20;;;;;;;;;;5088580;28;20819;-46
2023/03/14 11:02:38;;;;;;;2.07;1.97;;;;;;;;;;5090736;28;20419;-45
2023/03/14 11:05:27;;;;;;;4.47;2.07;;;;;;;;;;5090931;28;20410;-46
2023/03/14 11:07:54;;;;;;;2.13;2.03;;;;;;;;;;5089158;28;20426;-46
2023/03/14 11:10:26;;;;;;;2.03;1.93;;;;;;;;;;5090989;28;20468;-46
2023/03/14 11:12:55;;;;;;;1.90;1.80;;;;;;;;;;5095490;28;20452;-46
2023/03/14 11:15:24;;;;;;;3.03;2.33;;;;;;;;;;5089440;28;20807;-46
2023/03/14 11:17:58;;;;;;;7.70;1.70;;;;;;;;;;5089392;28;20429;-45
2023/03/14 11:20:30;;;;;;;1.60;1.50;;;;;;;;;;5090908;28;20403;-46
2023/03/14 11:23:00;;;;;;;1.73;1.63;;;;;;;;;;5095092;28;20463;-45
2023/03/14 11:25:32;;;;;;;1.67;1.57;;;;;;;;;;5095467;28;20759;-45
2023/03/14 11:28:10;;;;;;;1.13;1.13;;;;;;;;;;5094365;28;20464;-45
2023/03/14 11:30:40;;;;;;;1.50;1.40;;;;;;;;;;5094587;28;20458;-45
2023/03/14 11:33:14;;;;;;;1.60;1.50;;;;;;;;;;5095343;28;20436;-45
2023/03/14 11:35:45;;;;;;;5.00;1.83;;;;;;;;;;5091432;28;20892;-45
2023/03/14 11:38:30;;;;;;;1.90;1.80;;;;;;;;;;5092818;28;20514;-45
2023/03/14 11:40:57;;;;;;;2.20;2.00;;;;;;;;;;5094375;28;20415;-45
2023/03/14 11:43:29;;;;;;;2.00;1.90;;;;;;;;;;5092810;28;20869;-45
2023/03/14 11:45:57;;;;;;;1.63;1.53;;;;;;;;;;5094053;28;20519;-45
2023/03/14 11:48:23;;;;;;;4.47;2.50;;;;;;;;;;5094786;28;20423;-46
2023/03/14 11:50:51;;;;;;;2.20;2.07;;;;;;;;;;5094145;28;20547;-46
2023/03/14 11:53:20;;;;;;;4.93;1.97;;;;;;;;;;5094784;28;20431;-45
2023/03/14 11:55:46;;;;;;;1.43;1.33;;;;;;;;;;5094677;28;20407;-45
2023/03/14 11:58:12;;;;;;;1.90;1.80;;;;;;;;;;5094763;28;20408;-45
2023/03/14 12:00:39;;;;;;;3.17;1.73;;;;;;;;;;5093775;28;20493;-45
2023/03/14 12:03:05;;;;;;;2.43;1.83;;;;;;;;;;5090412;28;20429;-45
2023/03/14 12:05:31;;;;;;;1.80;1.70;;;;;;;;;;5094393;28;20499;-45
2023/03/14 12:08:03;;;;;;;9.90;1.90;;;;;;;;;;5094215;28;20519;-45
2023/03/14 12:10:30;;;;;;;2.43;2.23;;;;;;;;;;5093277;28;20823;-45
2023/03/14 12:12:56;;;;;;;2.73;1.83;;;;;;;;;;5094387;28;20442;-45
2023/03/14 12:15:23;;;;;;;3.90;2.10;;;;;;;;;;5090652;28;20448;-45
2023/03/14 12:17:54;;;;;;;6.67;3.37;;;;;;;;;;5091567;28;20801;-46
2023/03/14 12:20:25;;;;;;;2.17;2.07;;;;;;;;;;5093727;28;20404;-45
2023/03/14 12:22:56;;;;;;;3.72;1.80;;;;;;;;;;5093733;28;20436;-45
2023/03/14 12:25:24;;;;;;;1.63;1.52;;;;;;;;;;5093746;28;20717;-45
2023/03/14 12:27:56;;;;;;;3.00;2.30;;;;;;;;;;5091891;28;20280;-45
2023/03/14 12:30:30;;;;;;;9.75;3.00;;;;;;;;;;5093305;28;20200;-45
2023/03/14 12:33:11;;;;;;;2.85;2.00;;;;;;;;;;5093742;28;20254;-45
2023/03/14 12:35:37;;;;;;;2.65;2.45;;;;;;;;;;5085180;28;20654;-45
2023/03/14 12:38:13;;;;;;;2.75;1.88;;;;;;;;;;5092453;28;20560;-45
2023/03/14 12:40:41;;;;;;;3.53;2.40;;;;;;;;;;5093106;28;20209;-45
2023/03/14 12:43:24;;;;;;;6.47;2.17;;;;;;;;;;5083854;28;20424;-45
2023/03/14 12:46:09;;;;;;;2.10;2.00;;;;;;;;;;5091372;28;20215;-45
2023/03/14 12:48:38;;;;;;;8.13;2.27;;;;;;;;;;5089006;28;20457;-45
2023/03/14 12:51:05;;;;;;;1.97;1.70;;;;;;;;;;5093152;28;20490;-45
2023/03/14 12:53:44;;;;;;;2.30;2.10;;;;;;;;;;5093111;28;20991;-45
2023/03/14 12:56:19;;;;;;;1.80;1.70;;;;;;;;;;5093678;28;20392;-45
2023/03/14 12:58:54;;;;;;;7.33;2.20;;;;;;;;;;5089799;28;20405;-45
2023/03/14 13:01:20;;;;;;;1.90;1.80;;;;;;;;;;5092898;28;20458;-45
2023/03/14 13:03:55;;;;;;;2.40;1.90;;;;;;;;;;5092024;28;20827;-45
2023/03/14 13:06:44;;;;;;;4.90;1.97;;;;;;;;;;5093578;28;20411;-45
2023/03/14 13:09:34;;;;;;;2.10;1.90;;;;;;;;;;5084775;28;20424;-45
2023/03/14 13:12:19;;;;;;;11.17;4.17;;;;;;;;;;5092444;28;20491;-45
2023/03/14 13:14:46;;;;;;;1.70;1.60;;;;;;;;;;5090388;28;20804;-44
2023/03/14 13:17:16;;;;;;;4.80;3.30;;;;;;;;;;5088877;28;20431;-44
2023/03/14 13:19:42;;;;;;;3.42;1.30;;;;;;;;;;5089325;28;20407;-45
2023/03/14 13:22:41;;;;;;;3.17;1.60;;;;;;;;;;5084372;28;20188;-45
2023/03/14 13:25:10;;;;;;;2.35;1.40;;;;;;;;;;5074740;28;20919;-45
2023/03/14 13:27:36;;;;;;;2.47;2.13;;;;;;;;;;5093176;28;20617;-44
2023/03/14 13:30:06;;;;;;;9.30;2.50;;;;;;;;;;5092799;28;20201;-45
2023/03/14 13:32:32;;;;;;;9.30;1.80;;;;;;;;;;5093027;28;20788;-45
2023/03/14 13:34:58;;;;;;;4.60;1.80;;;;;;;;;;5091841;28;20166;-44
2023/03/14 13:37:25;;;;;;;3.03;1.33;;;;;;;;;;5092863;28;20780;-44
2023/03/14 13:39:52;;;;;;;3.20;1.90;;;;;;;;;;5092832;28;20210;-44
2023/03/14 13:42:19;;;;;;;8.75;2.05;;;;;;;;;;5092237;28;20185;-45
2023/03/14 13:44:45;;;;;;;4.00;1.57;;;;;;;;;;5084520;28;20189;-44
2023/03/14 13:47:14;;;;;;;4.33;2.40;;;;;;;;;;5084247;28;20428;-45
2023/03/14 13:49:40;;;;;;;12.57;2.72;;;;;;;;;;5092574;28;20451;-45
2023/03/14 13:52:22;;;;;;;3.90;2.17;;;;;;;;;;5091985;28;20194;-45
2023/03/14 13:54:48;;;;;;;2.05;1.90;;;;;;;;;;5089782;28;20423;-45
2023/03/14 13:57:13;;;;;;;7.23;2.57;;;;;;;;;;5091805;28;20215;-45
2023/03/14 13:59:39;;;;;;;10.33;2.73;;;;;;;;;;5092698;28;20484;-45
2023/03/14 14:02:13;;;;;;;5.60;3.03;;;;;;;;;;5091436;28;20434;-45
2023/03/14 14:04:39;;;;;;;7.57;3.50;;;;;;;;;;5092687;28;20750;-45
2023/03/14 14:07:11;;;;;;;4.97;2.23;;;;;;;;;;5092299;28;20880;-45
2023/03/14 14:09:43;;;;;;;20.33;2.83;;;;;;;;;;5092382;28;20452;-45
2023/03/14 14:12:09;;;;;;;6.63;2.40;;;;;;;;;;5088839;28;20427;-45
2023/03/14 14:14:37;;;;;;;5.40;2.77;;;;;;;;;;5092003;28;20775;-45
2023/03/14 14:17:05;;;;;;;11.17;2.40;;;;;;;;;;5089902;28;20992;-45
2023/03/14 14:19:32;;;;;;;8.93;3.20;;;;;;;;;;5090213;28;20421;-45
2023/03/14 14:21:58;;;;;;;9.27;2.80;;;;;;;;;;5087994;28;20939;-45
2023/03/14 14:24:28;;;;;;;10.20;3.83;;;;;;;;;;5092193;28;20847;-45
2023/03/14 14:26:59;;;;;;;9.13;3.93;;;;;;;;;;5092056;28;20444;-45
2023/03/14 14:29:32;;;;;;;7.50;3.10;;;;;;;;;;5091771;28;20550;-44
2023/03/14 14:32:09;;;;;;;13.23;3.33;;;;;;;;;;5089360;28;20908;-45
2023/03/14 14:34:40;;;;;;;16.50;3.33;;;;;;;;;;5089110;28;20409;-44
2023/03/14 14:37:17;;;;;;;14.37;3.00;;;;;;;;;;5091742;28;20964;-44
2023/03/14 14:39:43;;;;;;;5.53;3.10;;;;;;;;;;5091617;28;20420;-44
2023/03/14 14:42:21;;;;;;;9.80;2.90;;;;;;;;;;5091016;28;20464;-44
2023/03/14 14:44:49;;;;;;;8.60;2.80;;;;;;;;;;5091062;28;20415;-45
2023/03/14 14:47:18;;;;;;;3.33;2.40;;;;;;;;;;5091528;28;20415;-45
2023/03/14 14:49:44;;;;;;;17.23;3.60;;;;;;;;;;5091403;28;20465;-44